sensor_id;sensor_type;location;lat;lon;timestamp;temperature;humidity
23160;DHT22;11748;50.844;4.396;2024-02-21T00:01:08;9.80;99.90
23160;DHT22;11748;50.844;4.396;2024-02-21T00:03:34;9.90;99.90
23160;DHT22;11748;50.844;4.396;2024-02-21T00:05:59;9.90;99.90
23160;DHT22;11748;50.844;4.396;2024-02-21T00:08:26;9.90;99.90
23160;DHT22;11748;50.844;4.396;2024-02-21T00:10:51;9.80;99.90
23160;DHT22;11748;50.844;4.396;2024-02-21T00:13:17;9.80;99.90
23160;DHT22;11748;50.844;4.396;2024-02-21T00:15:43;9.90;99.90
23160;DHT22;11748;50.844;4.396;2024-02-21T00:18:08;10.00;99.90
23160;DHT22;11748;50.844;4.396;2024-02-21T00:20:36;10.00;99.90
23160;DHT22;11748;50.844;4.396;2024-02-21T00:23:02;9.90;99.90
23160;DHT22;11748;50.844;4.396;2024-02-21T00:25:28;9.90;99.90
23160;DHT22;11748;50.844;4.396;2024-02-21T00:27:54;9.80;99.90
23160;DHT22;11748;50.844;4.396;2024-02-21T00:30:20;9.90;99.90
23160;DHT22;11748;50.844;4.396;2024-02-21T00:32:46;9.90;99.90
23160;DHT22;11748;50.844;4.396;2024-02-21T00:35:12;10.00;99.90
23160;DHT22;11748;50.844;4.396;2024-02-21T00:37:37;10.30;99.90
23160;DHT22;11748;50.844;4.396;2024-02-21T00:40:04;10.40;99.90
23160;DHT22;11748;50.844;4.396;2024-02-21T00:42:30;10.30;99.90
23160;DHT22;11748;50.844;4.396;2024-02-21T00:44:56;10.30;99.90
23160;DHT22;11748;50.844;4.396;2024-02-21T00:47:22;10.20;99.90
23160;DHT22;11748;50.844;4.396;2024-02-21T00:49:47;10.20;99.90
23160;DHT22;11748;50.844;4.396;2024-02-21T00:52:13;10.20;99.90
23160;DHT22;11748;50.844;4.396;2024-02-21T00:54:38;10.50;99.90
23160;DHT22;11748;50.844;4.396;2024-02-21T00:57:04;10.70;99.90
23160;DHT22;11748;50.844;4.396;2024-02-21T00:59:30;10.60;99.90
23160;DHT22;11748;50.844;4.396;2024-02-21T01:01:56;10.80;99.90
23160;DHT22;11748;50.844;4.396;2024-02-21T01:04:21;10.80;99.90
23160;DHT22;11748;50.844;4.396;2024-02-21T01:06:47;11.00;99.90
23160;DHT22;11748;50.844;4.396;2024-02-21T01:09:13;11.00;99.90
23160;DHT22;11748;50.844;4.396;2024-02-21T01:11:38;11.00;99.90
23160;DHT22;11748;50.844;4.396;2024-02-21T01:14:04;10.90;99.90
23160;DHT22;11748;50.844;4.396;2024-02-21T01:16:30;10.90;99.90
23160;DHT22;11748;50.844;4.396;2024-02-21T01:18:56;10.90;99.90
23160;DHT22;11748;50.844;4.396;2024-02-21T01:21:23;10.80;99.90
23160;DHT22;11748;50.844;4.396;2024-02-21T01:23:48;10.80;99.90
23160;DHT22;11748;50.844;4.396;2024-02-21T01:26:14;10.80;99.90
23160;DHT22;11748;50.844;4.396;2024-02-21T01:28:41;10.70;99.90
23160;DHT22;11748;50.844;4.396;2024-02-21T01:31:07;10.70;99.90
23160;DHT22;11748;50.844;4.396;2024-02-21T01:33:33;10.80;99.90
23160;DHT22;11748;50.844;4.396;2024-02-21T01:36:03;10.80;99.90
23160;DHT22;11748;50.844;4.396;2024-02-21T01:38:29;10.70;99.90
23160;DHT22;11748;50.844;4.396;2024-02-21T01:40:55;10.70;99.90
23160;DHT22;11748;50.844;4.396;2024-02-21T01:43:22;10.70;99.90
23160;DHT22;11748;50.844;4.396;2024-02-21T01:45:54;10.70;99.90
23160;DHT22;11748;50.844;4.396;2024-02-21T01:48:22;10.70;99.90
23160;DHT22;11748;50.844;4.396;2024-02-21T01:50:49;10.70;99.90
23160;DHT22;11748;50.844;4.396;2024-02-21T01:53:21;10.70;99.90
23160;DHT22;11748;50.844;4.396;2024-02-21T01:55:48;10.70;99.90
23160;DHT22;11748;50.844;4.396;2024-02-21T01:58:15;10.70;99.90
23160;DHT22;11748;50.844;4.396;2024-02-21T02:00:45;10.60;99.90
23160;DHT22;11748;50.844;4.396;2024-02-21T02:03:12;10.70;99.90
23160;DHT22;11748;50.844;4.396;2024-02-21T02:05:45;10.50;99.90
23160;DHT22;11748;50.844;4.396;2024-02-21T02:08:17;10.50;99.90
23160;DHT22;11748;50.844;4.396;2024-02-21T02:10:44;10.60;99.90
23160;DHT22;11748;50.844;4.396;2024-02-21T02:13:12;10.70;99.90
23160;DHT22;11748;50.844;4.396;2024-02-21T02:15:39;10.70;99.90
23160;DHT22;11748;50.844;4.396;2024-02-21T02:18:06;10.70;99.90
23160;DHT22;11748;50.844;4.396;2024-02-21T02:20:33;10.80;99.90
23160;DHT22;11748;50.844;4.396;2024-02-21T02:22:59;10.80;99.90
23160;DHT22;11748;50.844;4.396;2024-02-21T02:25:27;10.80;99.90
23160;DHT22;11748;50.844;4.396;2024-02-21T02:27:56;10.70;99.90
23160;DHT22;11748;50.844;4.396;2024-02-21T02:30:23;10.80;99.90
23160;DHT22;11748;50.844;4.396;2024-02-21T02:32:52;10.80;99.90
23160;DHT22;11748;50.844;4.396;2024-02-21T02:35:25;10.80;99.90
23160;DHT22;11748;50.844;4.396;2024-02-21T02:38:01;10.70;99.90
23160;DHT22;11748;50.844;4.396;2024-02-21T02:40:41;10.80;99.90
23160;DHT22;11748;50.844;4.396;2024-02-21T02:43:08;10.80;99.90
23160;DHT22;11748;50.844;4.396;2024-02-21T02:45:34;10.80;99.90
23160;DHT22;11748;50.844;4.396;2024-02-21T02:48:00;10.80;99.90
23160;DHT22;11748;50.844;4.396;2024-02-21T02:50:27;10.90;99.90
23160;DHT22;11748;50.844;4.396;2024-02-21T02:52:53;10.80;99.90
23160;DHT22;11748;50.844;4.396;2024-02-21T02:55:19;10.80;99.90
23160;DHT22;11748;50.844;4.396;2024-02-21T02:57:47;10.60;99.90
23160;DHT22;11748;50.844;4.396;2024-02-21T03:00:14;10.60;99.90
23160;DHT22;11748;50.844;4.396;2024-02-21T03:02:42;10.50;99.90
23160;DHT22;11748;50.844;4.396;2024-02-21T03:05:20;10.70;99.90
23160;DHT22;11748;50.844;4.396;2024-02-21T03:07:47;10.80;99.90
23160;DHT22;11748;50.844;4.396;2024-02-21T03:10:13;10.90;99.90
23160;DHT22;11748;50.844;4.396;2024-02-21T03:12:39;10.90;99.90
23160;DHT22;11748;50.844;4.396;2024-02-21T03:15:05;10.90;99.90
23160;DHT22;11748;50.844;4.396;2024-02-21T03:17:32;11.00;99.90
23160;DHT22;11748;50.844;4.396;2024-02-21T03:19:59;11.00;99.90
23160;DHT22;11748;50.844;4.396;2024-02-21T03:22:25;11.10;99.90
23160;DHT22;11748;50.844;4.396;2024-02-21T03:24:51;11.00;99.90
23160;DHT22;11748;50.844;4.396;2024-02-21T03:27:18;10.90;99.90
23160;DHT22;11748;50.844;4.396;2024-02-21T03:29:44;11.00;99.90
23160;DHT22;11748;50.844;4.396;2024-02-21T03:32:10;11.00;99.90
23160;DHT22;11748;50.844;4.396;2024-02-21T03:34:36;11.00;99.90
23160;DHT22;11748;50.844;4.396;2024-02-21T03:37:01;11.00;99.90
23160;DHT22;11748;50.844;4.396;2024-02-21T03:39:31;11.10;99.90
23160;DHT22;11748;50.844;4.396;2024-02-21T03:41:58;10.90;99.90
23160;DHT22;11748;50.844;4.396;2024-02-21T03:44:26;10.90;99.90
23160;DHT22;11748;50.844;4.396;2024-02-21T03:46:52;11.00;99.90
23160;DHT22;11748;50.844;4.396;2024-02-21T03:49:18;11.00;99.90
23160;DHT22;11748;50.844;4.396;2024-02-21T03:51:44;11.10;99.90
23160;DHT22;11748;50.844;4.396;2024-02-21T03:54:10;11.20;99.90
23160;DHT22;11748;50.844;4.396;2024-02-21T03:56:39;11.20;99.90
23160;DHT22;11748;50.844;4.396;2024-02-21T03:59:08;11.20;99.90
23160;DHT22;11748;50.844;4.396;2024-02-21T04:01:34;11.10;99.90
23160;DHT22;11748;50.844;4.396;2024-02-21T04:04:02;11.10;99.90
23160;DHT22;11748;50.844;4.396;2024-02-21T04:06:27;11.10;99.90
23160;DHT22;11748;50.844;4.396;2024-02-21T04:08:53;11.00;99.90
23160;DHT22;11748;50.844;4.396;2024-02-21T04:11:19;11.00;99.90
23160;DHT22;11748;50.844;4.396;2024-02-21T04:13:45;11.00;99.90
23160;DHT22;11748;50.844;4.396;2024-02-21T04:16:14;11.00;99.90
23160;DHT22;11748;50.844;4.396;2024-02-21T04:18:41;11.10;99.90
23160;DHT22;11748;50.844;4.396;2024-02-21T04:21:11;11.00;99.90
23160;DHT22;11748;50.844;4.396;2024-02-21T04:23:39;11.00;99.90
23160;DHT22;11748;50.844;4.396;2024-02-21T04:26:05;10.90;99.90
23160;DHT22;11748;50.844;4.396;2024-02-21T04:28:31;10.90;99.90
23160;DHT22;11748;50.844;4.396;2024-02-21T04:30:56;10.90;99.90
23160;DHT22;11748;50.844;4.396;2024-02-21T04:33:22;10.90;99.90
23160;DHT22;11748;50.844;4.396;2024-02-21T04:35:49;10.90;99.90
23160;DHT22;11748;50.844;4.396;2024-02-21T04:38:14;10.90;99.90
23160;DHT22;11748;50.844;4.396;2024-02-21T04:40:40;10.90;99.90
23160;DHT22;11748;50.844;4.396;2024-02-21T04:43:07;11.00;99.90
23160;DHT22;11748;50.844;4.396;2024-02-21T04:45:32;11.00;99.90
23160;DHT22;11748;50.844;4.396;2024-02-21T04:47:58;10.90;99.90
23160;DHT22;11748;50.844;4.396;2024-02-21T04:50:23;10.90;99.90
23160;DHT22;11748;50.844;4.396;2024-02-21T04:52:50;10.90;99.90
23160;DHT22;11748;50.844;4.396;2024-02-21T04:55:16;10.90;99.90
23160;DHT22;11748;50.844;4.396;2024-02-21T04:57:42;10.80;99.90
23160;DHT22;11748;50.844;4.396;2024-02-21T05:00:08;10.80;99.90
23160;DHT22;11748;50.844;4.396;2024-02-21T05:02:34;10.80;99.90
23160;DHT22;11748;50.844;4.396;2024-02-21T05:05:01;10.80;99.90
23160;DHT22;11748;50.844;4.396;2024-02-21T05:07:28;10.80;99.90
23160;DHT22;11748;50.844;4.396;2024-02-21T05:09:53;10.80;99.90
23160;DHT22;11748;50.844;4.396;2024-02-21T05:12:25;10.90;99.90
23160;DHT22;11748;50.844;4.396;2024-02-21T05:14:51;10.90;99.90
23160;DHT22;11748;50.844;4.396;2024-02-21T05:17:16;10.90;99.90
23160;DHT22;11748;50.844;4.396;2024-02-21T05:19:42;10.90;99.90
23160;DHT22;11748;50.844;4.396;2024-02-21T05:22:07;10.90;99.90
23160;DHT22;11748;50.844;4.396;2024-02-21T05:24:33;10.90;99.90
23160;DHT22;11748;50.844;4.396;2024-02-21T05:26:59;10.90;99.90
23160;DHT22;11748;50.844;4.396;2024-02-21T05:29:24;10.80;99.90
23160;DHT22;11748;50.844;4.396;2024-02-21T05:34:19;10.90;99.90
23160;DHT22;11748;50.844;4.396;2024-02-21T05:36:45;10.90;99.90
23160;DHT22;11748;50.844;4.396;2024-02-21T05:39:13;10.80;99.90
23160;DHT22;11748;50.844;4.396;2024-02-21T05:41:43;10.80;99.90
23160;DHT22;11748;50.844;4.396;2024-02-21T05:44:08;10.80;99.90
23160;DHT22;11748;50.844;4.396;2024-02-21T05:46:34;10.90;99.90
23160;DHT22;11748;50.844;4.396;2024-02-21T05:49:00;10.90;99.90
23160;DHT22;11748;50.844;4.396;2024-02-21T05:51:27;10.80;99.90
23160;DHT22;11748;50.844;4.396;2024-02-21T05:53:53;10.90;99.90
23160;DHT22;11748;50.844;4.396;2024-02-21T05:56:18;10.90;99.90
23160;DHT22;11748;50.844;4.396;2024-02-21T05:58:44;11.00;99.90
23160;DHT22;11748;50.844;4.396;2024-02-21T06:01:11;10.90;99.90
23160;DHT22;11748;50.844;4.396;2024-02-21T06:03:37;10.90;99.90
23160;DHT22;11748;50.844;4.396;2024-02-21T06:06:03;10.70;99.90
23160;DHT22;11748;50.844;4.396;2024-02-21T06:08:36;10.70;99.90
23160;DHT22;11748;50.844;4.396;2024-02-21T06:11:02;10.70;99.90
23160;DHT22;11748;50.844;4.396;2024-02-21T06:13:27;10.90;99.90
23160;DHT22;11748;50.844;4.396;2024-02-21T06:15:54;10.90;99.90
23160;DHT22;11748;50.844;4.396;2024-02-21T06:18:20;10.90;99.90
23160;DHT22;11748;50.844;4.396;2024-02-21T06:20:47;10.90;99.90
23160;DHT22;11748;50.844;4.396;2024-02-21T06:23:15;11.00;99.90
23160;DHT22;11748;50.844;4.396;2024-02-21T06:25:41;11.00;99.90
23160;DHT22;11748;50.844;4.396;2024-02-21T06:28:06;11.00;99.90
23160;DHT22;11748;50.844;4.396;2024-02-21T06:30:33;11.10;99.90
23160;DHT22;11748;50.844;4.396;2024-02-21T06:32:59;11.00;99.90
23160;DHT22;11748;50.844;4.396;2024-02-21T06:35:25;11.00;99.90
23160;DHT22;11748;50.844;4.396;2024-02-21T06:37:52;11.00;99.90
23160;DHT22;11748;50.844;4.396;2024-02-21T06:40:20;11.00;99.90
23160;DHT22;11748;50.844;4.396;2024-02-21T06:42:46;11.00;99.90
23160;DHT22;11748;50.844;4.396;2024-02-21T06:45:12;10.90;99.90
23160;DHT22;11748;50.844;4.396;2024-02-21T06:47:37;10.90;99.90
23160;DHT22;11748;50.844;4.396;2024-02-21T06:50:03;11.00;99.90
23160;DHT22;11748;50.844;4.396;2024-02-21T06:52:29;11.00;99.90
23160;DHT22;11748;50.844;4.396;2024-02-21T06:54:56;10.90;99.90
23160;DHT22;11748;50.844;4.396;2024-02-21T06:57:22;11.00;99.90
23160;DHT22;11748;50.844;4.396;2024-02-21T06:59:48;10.90;99.90
23160;DHT22;11748;50.844;4.396;2024-02-21T07:02:14;10.90;99.90
23160;DHT22;11748;50.844;4.396;2024-02-21T07:04:39;10.80;99.90
23160;DHT22;11748;50.844;4.396;2024-02-21T07:07:05;10.70;99.90
23160;DHT22;11748;50.844;4.396;2024-02-21T07:09:31;10.80;99.90
23160;DHT22;11748;50.844;4.396;2024-02-21T07:11:58;10.90;99.90
23160;DHT22;11748;50.844;4.396;2024-02-21T07:14:24;10.90;99.90
23160;DHT22;11748;50.844;4.396;2024-02-21T07:16:50;10.90;99.90
23160;DHT22;11748;50.844;4.396;2024-02-21T07:19:16;10.90;99.90
23160;DHT22;11748;50.844;4.396;2024-02-21T07:21:42;10.90;99.90
23160;DHT22;11748;50.844;4.396;2024-02-21T07:24:08;10.80;99.90
23160;DHT22;11748;50.844;4.396;2024-02-21T07:26:34;10.80;99.90
23160;DHT22;11748;50.844;4.396;2024-02-21T07:28:59;10.80;99.90
23160;DHT22;11748;50.844;4.396;2024-02-21T07:31:25;10.80;99.90
23160;DHT22;11748;50.844;4.396;2024-02-21T07:33:51;10.70;99.90
23160;DHT22;11748;50.844;4.396;2024-02-21T07:36:28;10.80;99.90
23160;DHT22;11748;50.844;4.396;2024-02-21T07:38:53;10.60;99.90
23160;DHT22;11748;50.844;4.396;2024-02-21T07:41:19;10.70;99.90
23160;DHT22;11748;50.844;4.396;2024-02-21T07:43:45;10.70;99.90
23160;DHT22;11748;50.844;4.396;2024-02-21T07:46:10;10.70;99.90
23160;DHT22;11748;50.844;4.396;2024-02-21T07:48:36;10.70;99.90
23160;DHT22;11748;50.844;4.396;2024-02-21T07:51:02;10.70;99.90
23160;DHT22;11748;50.844;4.396;2024-02-21T07:53:28;10.70;99.90
23160;DHT22;11748;50.844;4.396;2024-02-21T07:55:54;10.80;99.90
23160;DHT22;11748;50.844;4.396;2024-02-21T07:58:20;10.80;99.90
23160;DHT22;11748;50.844;4.396;2024-02-21T08:00:45;10.80;99.90
23160;DHT22;11748;50.844;4.396;2024-02-21T08:03:11;10.80;99.90
23160;DHT22;11748;50.844;4.396;2024-02-21T08:05:37;10.90;99.90
23160;DHT22;11748;50.844;4.396;2024-02-21T08:08:03;10.80;99.90
23160;DHT22;11748;50.844;4.396;2024-02-21T08:10:29;10.90;99.90
23160;DHT22;11748;50.844;4.396;2024-02-21T08:12:55;10.90;99.90
23160;DHT22;11748;50.844;4.396;2024-02-21T08:15:22;10.90;99.90
23160;DHT22;11748;50.844;4.396;2024-02-21T08:17:53;10.90;99.90
23160;DHT22;11748;50.844;4.396;2024-02-21T08:20:24;10.90;99.90
23160;DHT22;11748;50.844;4.396;2024-02-21T08:22:50;11.00;99.90
23160;DHT22;11748;50.844;4.396;2024-02-21T08:25:16;11.10;99.90
23160;DHT22;11748;50.844;4.396;2024-02-21T08:27:41;11.10;99.90
23160;DHT22;11748;50.844;4.396;2024-02-21T08:30:07;11.00;99.90
23160;DHT22;11748;50.844;4.396;2024-02-21T08:32:33;11.00;99.90
23160;DHT22;11748;50.844;4.396;2024-02-21T08:35:01;11.10;99.90
23160;DHT22;11748;50.844;4.396;2024-02-21T08:37:27;11.10;99.90
23160;DHT22;11748;50.844;4.396;2024-02-21T08:39:53;11.10;99.90
23160;DHT22;11748;50.844;4.396;2024-02-21T08:42:19;11.20;99.90
23160;DHT22;11748;50.844;4.396;2024-02-21T08:44:47;11.20;99.90
23160;DHT22;11748;50.844;4.396;2024-02-21T08:47:14;11.20;99.90
23160;DHT22;11748;50.844;4.396;2024-02-21T08:49:39;11.30;99.90
23160;DHT22;11748;50.844;4.396;2024-02-21T08:52:05;11.30;99.90
23160;DHT22;11748;50.844;4.396;2024-02-21T08:54:32;11.30;99.90
23160;DHT22;11748;50.844;4.396;2024-02-21T08:57:00;11.10;99.90
23160;DHT22;11748;50.844;4.396;2024-02-21T08:59:26;11.10;99.90
23160;DHT22;11748;50.844;4.396;2024-02-21T09:01:52;11.20;99.90
23160;DHT22;11748;50.844;4.396;2024-02-21T09:04:18;11.30;99.90
23160;DHT22;11748;50.844;4.396;2024-02-21T09:06:45;11.30;99.90
23160;DHT22;11748;50.844;4.396;2024-02-21T09:09:12;11.40;99.90
23160;DHT22;11748;50.844;4.396;2024-02-21T09:11:37;11.40;99.90
23160;DHT22;11748;50.844;4.396;2024-02-21T09:14:03;11.40;99.90
23160;DHT22;11748;50.844;4.396;2024-02-21T09:16:31;11.40;99.90
23160;DHT22;11748;50.844;4.396;2024-02-21T09:18:57;11.10;99.90
23160;DHT22;11748;50.844;4.396;2024-02-21T09:21:23;11.20;99.90
23160;DHT22;11748;50.844;4.396;2024-02-21T09:23:49;11.20;99.90
23160;DHT22;11748;50.844;4.396;2024-02-21T09:26:15;11.30;99.90
23160;DHT22;11748;50.844;4.396;2024-02-21T09:28:43;11.40;99.90
23160;DHT22;11748;50.844;4.396;2024-02-21T09:31:09;11.50;99.90
23160;DHT22;11748;50.844;4.396;2024-02-21T09:33:36;11.50;99.90
23160;DHT22;11748;50.844;4.396;2024-02-21T09:36:04;11.60;99.90
23160;DHT22;11748;50.844;4.396;2024-02-21T09:38:31;11.60;99.90
23160;DHT22;11748;50.844;4.396;2024-02-21T09:41:25;11.60;99.90
23160;DHT22;11748;50.844;4.396;2024-02-21T09:43:51;11.60;99.90
23160;DHT22;11748;50.844;4.396;2024-02-21T09:46:21;11.70;99.90
23160;DHT22;11748;50.844;4.396;2024-02-21T09:51:21;11.70;99.90
23160;DHT22;11748;50.844;4.396;2024-02-21T09:53:49;11.60;99.90
23160;DHT22;11748;50.844;4.396;2024-02-21T09:56:15;11.70;99.90
23160;DHT22;11748;50.844;4.396;2024-02-21T09:58:41;11.80;99.90
23160;DHT22;11748;50.844;4.396;2024-02-21T10:01:07;11.80;99.90
23160;DHT22;11748;50.844;4.396;2024-02-21T10:03:34;11.90;99.90
23160;DHT22;11748;50.844;4.396;2024-02-21T10:06:00;12.00;99.90
23160;DHT22;11748;50.844;4.396;2024-02-21T10:08:27;11.90;99.90
23160;DHT22;11748;50.844;4.396;2024-02-21T10:10:53;12.00;99.90
23160;DHT22;11748;50.844;4.396;2024-02-21T10:13:31;12.00;99.90
23160;DHT22;11748;50.844;4.396;2024-02-21T10:16:03;12.00;99.90
23160;DHT22;11748;50.844;4.396;2024-02-21T10:18:30;12.10;99.90
23160;DHT22;11748;50.844;4.396;2024-02-21T10:21:06;12.10;99.90
23160;DHT22;11748;50.844;4.396;2024-02-21T10:23:51;12.10;99.90
23160;DHT22;11748;50.844;4.396;2024-02-21T10:26:18;12.20;99.90
23160;DHT22;11748;50.844;4.396;2024-02-21T10:28:45;12.30;99.90
23160;DHT22;11748;50.844;4.396;2024-02-21T10:31:25;12.30;99.90
23160;DHT22;11748;50.844;4.396;2024-02-21T10:33:55;12.00;99.90
23160;DHT22;11748;50.844;4.396;2024-02-21T10:36:23;12.20;99.90
23160;DHT22;11748;50.844;4.396;2024-02-21T10:38:50;12.30;99.90
23160;DHT22;11748;50.844;4.396;2024-02-21T10:41:16;12.50;99.90
23160;DHT22;11748;50.844;4.396;2024-02-21T10:43:49;12.60;99.90
23160;DHT22;11748;50.844;4.396;2024-02-21T10:46:19;12.60;99.90
23160;DHT22;11748;50.844;4.396;2024-02-21T10:48:46;12.50;99.90
23160;DHT22;11748;50.844;4.396;2024-02-21T10:51:16;12.50;99.90
23160;DHT22;11748;50.844;4.396;2024-02-21T10:56:41;12.50;99.90
23160;DHT22;11748;50.844;4.396;2024-02-21T10:59:09;12.50;99.90
23160;DHT22;11748;50.844;4.396;2024-02-21T11:01:34;12.40;99.90
23160;DHT22;11748;50.844;4.396;2024-02-21T11:04:06;12.50;99.90
23160;DHT22;11748;50.844;4.396;2024-02-21T11:06:37;12.50;99.90
23160;DHT22;11748;50.844;4.396;2024-02-21T11:09:09;12.60;99.90
23160;DHT22;11748;50.844;4.396;2024-02-21T11:11:37;12.20;99.90
23160;DHT22;11748;50.844;4.396;2024-02-21T11:14:19;12.40;99.90
23160;DHT22;11748;50.844;4.396;2024-02-21T11:16:45;12.50;99.90
23160;DHT22;11748;50.844;4.396;2024-02-21T11:19:27;12.60;99.90
23160;DHT22;11748;50.844;4.396;2024-02-21T11:21:54;12.60;99.90
23160;DHT22;11748;50.844;4.396;2024-02-21T11:24:30;12.40;99.90
23160;DHT22;11748;50.844;4.396;2024-02-21T11:27:19;12.20;99.90
23160;DHT22;11748;50.844;4.396;2024-02-21T11:29:47;12.20;99.90
23160;DHT22;11748;50.844;4.396;2024-02-21T11:32:17;12.30;99.90
23160;DHT22;11748;50.844;4.396;2024-02-21T11:34:56;12.30;99.90
23160;DHT22;11748;50.844;4.396;2024-02-21T11:37:25;12.40;99.90
23160;DHT22;11748;50.844;4.396;2024-02-21T11:39:58;12.50;99.90
23160;DHT22;11748;50.844;4.396;2024-02-21T11:42:27;12.30;99.90
23160;DHT22;11748;50.844;4.396;2024-02-21T11:44:54;12.40;99.90
23160;DHT22;11748;50.844;4.396;2024-02-21T11:47:24;12.30;99.90
23160;DHT22;11748;50.844;4.396;2024-02-21T11:49:52;12.40;99.90
23160;DHT22;11748;50.844;4.396;2024-02-21T11:52:25;12.40;99.90
23160;DHT22;11748;50.844;4.396;2024-02-21T11:54:52;12.50;99.90
23160;DHT22;11748;50.844;4.396;2024-02-21T11:57:19;12.40;99.90
23160;DHT22;11748;50.844;4.396;2024-02-21T11:59:45;12.30;99.90
23160;DHT22;11748;50.844;4.396;2024-02-21T12:02:15;11.80;99.90
23160;DHT22;11748;50.844;4.396;2024-02-21T12:04:42;11.80;99.90
23160;DHT22;11748;50.844;4.396;2024-02-21T12:07:09;11.80;99.90
23160;DHT22;11748;50.844;4.396;2024-02-21T12:09:35;12.00;99.90
23160;DHT22;11748;50.844;4.396;2024-02-21T12:12:03;12.00;99.90
23160;DHT22;11748;50.844;4.396;2024-02-21T12:14:31;12.20;99.90
23160;DHT22;11748;50.844;4.396;2024-02-21T12:16:59;12.30;99.90
23160;DHT22;11748;50.844;4.396;2024-02-21T12:19:25;12.20;99.90
23160;DHT22;11748;50.844;4.396;2024-02-21T12:21:51;11.70;99.90
23160;DHT22;11748;50.844;4.396;2024-02-21T12:24:21;11.60;99.90
23160;DHT22;11748;50.844;4.396;2024-02-21T12:26:55;11.80;99.90
23160;DHT22;11748;50.844;4.396;2024-02-21T12:29:22;11.90;99.90
23160;DHT22;11748;50.844;4.396;2024-02-21T12:31:50;12.00;99.90
23160;DHT22;11748;50.844;4.396;2024-02-21T12:34:16;12.10;99.90
23160;DHT22;11748;50.844;4.396;2024-02-21T12:36:45;12.30;99.90
23160;DHT22;11748;50.844;4.396;2024-02-21T12:39:14;12.30;99.90
23160;DHT22;11748;50.844;4.396;2024-02-21T12:41:40;12.40;99.90
23160;DHT22;11748;50.844;4.396;2024-02-21T12:44:10;12.50;99.90
23160;DHT22;11748;50.844;4.396;2024-02-21T12:46:37;12.40;99.90
23160;DHT22;11748;50.844;4.396;2024-02-21T12:49:03;12.40;99.90
23160;DHT22;11748;50.844;4.396;2024-02-21T12:51:32;12.20;99.90
23160;DHT22;11748;50.844;4.396;2024-02-21T12:53:58;11.80;99.90
23160;DHT22;11748;50.844;4.396;2024-02-21T12:56:25;12.10;99.90
23160;DHT22;11748;50.844;4.396;2024-02-21T12:58:53;12.20;99.90
23160;DHT22;11748;50.844;4.396;2024-02-21T13:01:19;12.10;99.90
23160;DHT22;11748;50.844;4.396;2024-02-21T13:03:44;12.20;99.90
23160;DHT22;11748;50.844;4.396;2024-02-21T13:06:13;12.30;99.90
23160;DHT22;11748;50.844;4.396;2024-02-21T13:08:40;12.40;99.90
23160;DHT22;11748;50.844;4.396;2024-02-21T13:11:06;12.50;99.90
23160;DHT22;11748;50.844;4.396;2024-02-21T13:13:34;12.60;99.90
23160;DHT22;11748;50.844;4.396;2024-02-21T13:16:07;12.60;99.90
23160;DHT22;11748;50.844;4.396;2024-02-21T13:18:35;12.70;99.90
23160;DHT22;11748;50.844;4.396;2024-02-21T13:21:06;12.60;99.90
23160;DHT22;11748;50.844;4.396;2024-02-21T13:23:33;12.70;99.90
23160;DHT22;11748;50.844;4.396;2024-02-21T13:25:58;12.80;99.90
23160;DHT22;11748;50.844;4.396;2024-02-21T13:28:24;12.80;99.90
23160;DHT22;11748;50.844;4.396;2024-02-21T13:30:50;12.60;99.90
23160;DHT22;11748;50.844;4.396;2024-02-21T13:33:16;12.50;99.90
23160;DHT22;11748;50.844;4.396;2024-02-21T13:35:43;12.60;99.90
23160;DHT22;11748;50.844;4.396;2024-02-21T13:38:08;12.50;99.90
23160;DHT22;11748;50.844;4.396;2024-02-21T13:40:35;12.50;99.90
23160;DHT22;11748;50.844;4.396;2024-02-21T13:43:01;12.60;99.90
23160;DHT22;11748;50.844;4.396;2024-02-21T13:45:27;12.60;99.90
23160;DHT22;11748;50.844;4.396;2024-02-21T13:47:53;12.50;99.90
23160;DHT22;11748;50.844;4.396;2024-02-21T13:50:21;12.40;99.90
23160;DHT22;11748;50.844;4.396;2024-02-21T13:52:47;12.30;99.90
23160;DHT22;11748;50.844;4.396;2024-02-21T13:55:13;12.30;99.90
23160;DHT22;11748;50.844;4.396;2024-02-21T13:57:41;12.30;99.90
23160;DHT22;11748;50.844;4.396;2024-02-21T14:00:07;12.30;99.90
23160;DHT22;11748;50.844;4.396;2024-02-21T14:02:37;12.10;99.90
23160;DHT22;11748;50.844;4.396;2024-02-21T14:05:04;12.00;99.90
23160;DHT22;11748;50.844;4.396;2024-02-21T14:07:32;12.00;99.90
23160;DHT22;11748;50.844;4.396;2024-02-21T14:09:58;12.00;99.90
23160;DHT22;11748;50.844;4.396;2024-02-21T14:12:24;11.90;99.90
23160;DHT22;11748;50.844;4.396;2024-02-21T14:14:50;11.90;99.90
23160;DHT22;11748;50.844;4.396;2024-02-21T14:17:17;12.00;99.90
23160;DHT22;11748;50.844;4.396;2024-02-21T14:19:43;12.00;99.90
23160;DHT22;11748;50.844;4.396;2024-02-21T14:22:10;11.90;99.90
23160;DHT22;11748;50.844;4.396;2024-02-21T14:24:37;11.90;99.90
23160;DHT22;11748;50.844;4.396;2024-02-21T14:27:03;11.80;99.90
23160;DHT22;11748;50.844;4.396;2024-02-21T14:29:29;11.80;99.90
23160;DHT22;11748;50.844;4.396;2024-02-21T14:31:56;11.80;99.90
23160;DHT22;11748;50.844;4.396;2024-02-21T14:34:21;11.90;99.90
23160;DHT22;11748;50.844;4.396;2024-02-21T14:36:47;11.90;99.90
23160;DHT22;11748;50.844;4.396;2024-02-21T14:39:14;11.80;99.90
23160;DHT22;11748;50.844;4.396;2024-02-21T14:41:39;11.60;99.90
23160;DHT22;11748;50.844;4.396;2024-02-21T14:44:05;11.60;99.90
23160;DHT22;11748;50.844;4.396;2024-02-21T14:46:31;11.60;99.90
23160;DHT22;11748;50.844;4.396;2024-02-21T14:48:57;11.70;99.90
23160;DHT22;11748;50.844;4.396;2024-02-21T14:51:23;11.60;99.90
23160;DHT22;11748;50.844;4.396;2024-02-21T14:53:49;11.50;99.90
23160;DHT22;11748;50.844;4.396;2024-02-21T14:56:16;11.50;99.90
23160;DHT22;11748;50.844;4.396;2024-02-21T14:58:43;11.40;99.90
23160;DHT22;11748;50.844;4.396;2024-02-21T15:01:09;11.40;99.90
23160;DHT22;11748;50.844;4.396;2024-02-21T15:03:35;11.20;99.90
23160;DHT22;11748;50.844;4.396;2024-02-21T15:06:02;11.20;99.90
23160;DHT22;11748;50.844;4.396;2024-02-21T15:08:28;11.20;99.90
23160;DHT22;11748;50.844;4.396;2024-02-21T15:10:54;11.30;99.90
23160;DHT22;11748;50.844;4.396;2024-02-21T15:13:20;11.20;99.90
23160;DHT22;11748;50.844;4.396;2024-02-21T15:15:47;11.30;99.90
23160;DHT22;11748;50.844;4.396;2024-02-21T15:18:16;11.40;99.90
23160;DHT22;11748;50.844;4.396;2024-02-21T15:20:43;11.40;99.90
23160;DHT22;11748;50.844;4.396;2024-02-21T15:23:09;11.40;99.90
23160;DHT22;11748;50.844;4.396;2024-02-21T15:25:34;11.40;99.90
23160;DHT22;11748;50.844;4.396;2024-02-21T15:28:00;11.30;99.90
23160;DHT22;11748;50.844;4.396;2024-02-21T15:30:28;11.30;99.90
23160;DHT22;11748;50.844;4.396;2024-02-21T15:32:57;11.30;99.90
23160;DHT22;11748;50.844;4.396;2024-02-21T15:35:28;11.30;99.90
23160;DHT22;11748;50.844;4.396;2024-02-21T15:37:54;11.20;99.90
23160;DHT22;11748;50.844;4.396;2024-02-21T15:40:22;11.10;99.90